sensor_id;sensor_type;location;lat;lon;timestamp;P1;durP1;ratioP1;P2;durP2;ratioP2
10293;SDS011;5192;50.328;7.610;2023-11-19T00:00:09;1.00;;;0.50;;
10293;SDS011;5192;50.328;7.610;2023-11-19T00:02:39;1.47;;;0.53;;
10293;SDS011;5192;50.328;7.610;2023-11-19T00:05:08;0.50;;;0.50;;
10293;SDS011;5192;50.328;7.610;2023-11-19T00:07:38;0.50;;;0.50;;
10293;SDS011;5192;50.328;7.610;2023-11-19T00:10:08;1.73;;;0.87;;
10293;SDS011;5192;50.328;7.610;2023-11-19T00:12:42;1.03;;;0.60;;
10293;SDS011;5192;50.328;7.610;2023-11-19T00:15:10;0.60;;;0.60;;
10293;SDS011;5192;50.328;7.610;2023-11-19T00:17:44;0.57;;;0.57;;
10293;SDS011;5192;50.328;7.610;2023-11-19T00:20:14;0.60;;;0.50;;
10293;SDS011;5192;50.328;7.610;2023-11-19T00:22:42;0.57;;;0.57;;
10293;SDS011;5192;50.328;7.610;2023-11-19T00:25:11;0.50;;;0.50;;
10293;SDS011;5192;50.328;7.610;2023-11-19T00:27:40;0.60;;;0.60;;
10293;SDS011;5192;50.328;7.610;2023-11-19T00:30:10;1.23;;;0.50;;
10293;SDS011;5192;50.328;7.610;2023-11-19T00:32:42;0.50;;;0.50;;
10293;SDS011;5192;50.328;7.610;2023-11-19T00:35:14;1.13;;;0.60;;
10293;SDS011;5192;50.328;7.610;2023-11-19T00:37:42;0.80;;;0.47;;
10293;SDS011;5192;50.328;7.610;2023-11-19T00:40:14;1.43;;;0.50;;
10293;SDS011;5192;50.328;7.610;2023-11-19T00:42:43;0.50;;;0.50;;
10293;SDS011;5192;50.328;7.610;2023-11-19T00:45:12;0.80;;;0.50;;
10293;SDS011;5192;50.328;7.610;2023-11-19T00:47:39;0.50;;;0.50;;
10293;SDS011;5192;50.328;7.610;2023-11-19T00:50:07;1.47;;;0.60;;
10293;SDS011;5192;50.328;7.610;2023-11-19T00:52:34;0.50;;;0.50;;
10293;SDS011;5192;50.328;7.610;2023-11-19T00:55:03;0.43;;;0.43;;
10293;SDS011;5192;50.328;7.610;2023-11-19T00:57:36;0.57;;;0.53;;
10293;SDS011;5192;50.328;7.610;2023-11-19T01:00:05;0.93;;;0.53;;
10293;SDS011;5192;50.328;7.610;2023-11-19T01:02:49;0.77;;;0.50;;
10293;SDS011;5192;50.328;7.610;2023-11-19T01:05:17;0.93;;;0.40;;
10293;SDS011;5192;50.328;7.610;2023-11-19T01:07:48;1.37;;;0.50;;
10293;SDS011;5192;50.328;7.610;2023-11-19T01:10:16;0.47;;;0.47;;
10293;SDS011;5192;50.328;7.610;2023-11-19T01:12:46;0.50;;;0.50;;
10293;SDS011;5192;50.328;7.610;2023-11-19T01:15:12;0.50;;;0.50;;
10293;SDS011;5192;50.328;7.610;2023-11-19T01:17:38;0.47;;;0.47;;
10293;SDS011;5192;50.328;7.610;2023-11-19T01:20:05;0.57;;;0.50;;
10293;SDS011;5192;50.328;7.610;2023-11-19T01:22:33;0.40;;;0.40;;
10293;SDS011;5192;50.328;7.610;2023-11-19T01:24:59;1.17;;;0.60;;
10293;SDS011;5192;50.328;7.610;2023-11-19T01:27:25;1.40;;;0.43;;
10293;SDS011;5192;50.328;7.610;2023-11-19T01:29:53;0.50;;;0.50;;
10293;SDS011;5192;50.328;7.610;2023-11-19T01:32:21;0.50;;;0.50;;
10293;SDS011;5192;50.328;7.610;2023-11-19T01:34:50;0.47;;;0.47;;
10293;SDS011;5192;50.328;7.610;2023-11-19T01:37:18;0.60;;;0.60;;
10293;SDS011;5192;50.328;7.610;2023-11-19T01:39:47;0.60;;;0.60;;
10293;SDS011;5192;50.328;7.610;2023-11-19T01:42:15;0.40;;;0.40;;
10293;SDS011;5192;50.328;7.610;2023-11-19T01:44:53;0.80;;;0.60;;
10293;SDS011;5192;50.328;7.610;2023-11-19T01:47:23;0.60;;;0.60;;
10293;SDS011;5192;50.328;7.610;2023-11-19T01:49:51;3.73;;;0.60;;
10293;SDS011;5192;50.328;7.610;2023-11-19T01:52:19;0.40;;;0.40;;
10293;SDS011;5192;50.328;7.610;2023-11-19T01:54:46;0.50;;;0.50;;
10293;SDS011;5192;50.328;7.610;2023-11-19T01:57:15;2.33;;;0.43;;
10293;SDS011;5192;50.328;7.610;2023-11-19T01:59:42;0.80;;;0.60;;
10293;SDS011;5192;50.328;7.610;2023-11-19T02:02:12;0.50;;;0.50;;
10293;SDS011;5192;50.328;7.610;2023-11-19T02:04:40;0.30;;;0.30;;
10293;SDS011;5192;50.328;7.610;2023-11-19T02:07:09;0.40;;;0.40;;
10293;SDS011;5192;50.328;7.610;2023-11-19T02:09:38;0.70;;;0.40;;
10293;SDS011;5192;50.328;7.610;2023-11-19T02:12:05;0.50;;;0.50;;
10293;SDS011;5192;50.328;7.610;2023-11-19T02:14:33;0.53;;;0.33;;
10293;SDS011;5192;50.328;7.610;2023-11-19T02:17:01;0.30;;;0.30;;
10293;SDS011;5192;50.328;7.610;2023-11-19T02:19:29;0.30;;;0.30;;
10293;SDS011;5192;50.328;7.610;2023-11-19T02:21:58;0.40;;;0.40;;
10293;SDS011;5192;50.328;7.610;2023-11-19T02:24:27;1.80;;;0.50;;
10293;SDS011;5192;50.328;7.610;2023-11-19T02:27:10;0.40;;;0.40;;
10293;SDS011;5192;50.328;7.610;2023-11-19T02:29:41;0.40;;;0.40;;
10293;SDS011;5192;50.328;7.610;2023-11-19T02:32:09;0.40;;;0.40;;
10293;SDS011;5192;50.328;7.610;2023-11-19T02:34:39;0.60;;;0.40;;
10293;SDS011;5192;50.328;7.610;2023-11-19T02:37:05;0.30;;;0.30;;
10293;SDS011;5192;50.328;7.610;2023-11-19T02:39:32;0.43;;;0.43;;
10293;SDS011;5192;50.328;7.610;2023-11-19T02:42:00;0.40;;;0.40;;
10293;SDS011;5192;50.328;7.610;2023-11-19T02:44:27;0.40;;;0.40;;
10293;SDS011;5192;50.328;7.610;2023-11-19T02:46:56;1.20;;;0.40;;
10293;SDS011;5192;50.328;7.610;2023-11-19T02:49:26;0.30;;;0.30;;
10293;SDS011;5192;50.328;7.610;2023-11-19T02:51:58;0.40;;;0.40;;
10293;SDS011;5192;50.328;7.610;2023-11-19T02:54:26;0.40;;;0.40;;
10293;SDS011;5192;50.328;7.610;2023-11-19T02:56:53;0.63;;;0.47;;
10293;SDS011;5192;50.328;7.610;2023-11-19T02:59:26;0.40;;;0.40;;
10293;SDS011;5192;50.328;7.610;2023-11-19T03:02:08;1.30;;;0.43;;
10293;SDS011;5192;50.328;7.610;2023-11-19T03:04:44;0.40;;;0.30;;
10293;SDS011;5192;50.328;7.610;2023-11-19T03:07:12;0.30;;;0.30;;
10293;SDS011;5192;50.328;7.610;2023-11-19T03:09:40;0.53;;;0.30;;
10293;SDS011;5192;50.328;7.610;2023-11-19T03:12:10;1.00;;;0.40;;
10293;SDS011;5192;50.328;7.610;2023-11-19T03:14:37;0.30;;;0.30;;
10293;SDS011;5192;50.328;7.610;2023-11-19T03:17:03;0.30;;;0.30;;
10293;SDS011;5192;50.328;7.610;2023-11-19T03:19:31;2.63;;;0.40;;
10293;SDS011;5192;50.328;7.610;2023-11-19T03:22:01;0.40;;;0.40;;
10293;SDS011;5192;50.328;7.610;2023-11-19T03:24:30;0.43;;;0.43;;
10293;SDS011;5192;50.328;7.610;2023-11-19T03:26:58;0.30;;;0.30;;
10293;SDS011;5192;50.328;7.610;2023-11-19T03:29:24;0.80;;;0.40;;
10293;SDS011;5192;50.328;7.610;2023-11-19T03:31:51;0.20;;;0.20;;
10293;SDS011;5192;50.328;7.610;2023-11-19T03:34:18;0.40;;;0.40;;
10293;SDS011;5192;50.328;7.610;2023-11-19T03:36:44;0.97;;;0.40;;
10293;SDS011;5192;50.328;7.610;2023-11-19T03:39:11;0.30;;;0.30;;
10293;SDS011;5192;50.328;7.610;2023-11-19T03:41:40;0.30;;;0.30;;
10293;SDS011;5192;50.328;7.610;2023-11-19T03:44:08;0.20;;;0.20;;
10293;SDS011;5192;50.328;7.610;2023-11-19T03:46:35;0.40;;;0.40;;
10293;SDS011;5192;50.328;7.610;2023-11-19T03:49:03;0.30;;;0.30;;
10293;SDS011;5192;50.328;7.610;2023-11-19T03:51:34;0.53;;;0.30;;
10293;SDS011;5192;50.328;7.610;2023-11-19T03:54:02;0.30;;;0.30;;
10293;SDS011;5192;50.328;7.610;2023-11-19T03:56:30;0.30;;;0.30;;
10293;SDS011;5192;50.328;7.610;2023-11-19T03:58:59;0.33;;;0.30;;
10293;SDS011;5192;50.328;7.610;2023-11-19T04:01:25;0.43;;;0.30;;
10293;SDS011;5192;50.328;7.610;2023-11-19T04:03:51;0.20;;;0.20;;
10293;SDS011;5192;50.328;7.610;2023-11-19T04:06:18;1.03;;;0.30;;
10293;SDS011;5192;50.328;7.610;2023-11-19T04:08:47;0.30;;;0.30;;
10293;SDS011;5192;50.328;7.610;2023-11-19T04:11:14;0.20;;;0.20;;
10293;SDS011;5192;50.328;7.610;2023-11-19T04:13:41;0.30;;;0.30;;
10293;SDS011;5192;50.328;7.610;2023-11-19T04:16:10;2.07;;;0.30;;
10293;SDS011;5192;50.328;7.610;2023-11-19T04:18:41;0.30;;;0.30;;
10293;SDS011;5192;50.328;7.610;2023-11-19T04:21:08;0.20;;;0.20;;
10293;SDS011;5192;50.328;7.610;2023-11-19T04:23:36;0.40;;;0.40;;
10293;SDS011;5192;50.328;7.610;2023-11-19T04:26:04;0.20;;;0.20;;
10293;SDS011;5192;50.328;7.610;2023-11-19T04:28:31;0.30;;;0.30;;
10293;SDS011;5192;50.328;7.610;2023-11-19T04:30:57;0.40;;;0.40;;
10293;SDS011;5192;50.328;7.610;2023-11-19T04:33:23;0.40;;;0.40;;
10293;SDS011;5192;50.328;7.610;2023-11-19T04:35:50;0.30;;;0.30;;
10293;SDS011;5192;50.328;7.610;2023-11-19T04:38:18;0.30;;;0.30;;
10293;SDS011;5192;50.328;7.610;2023-11-19T04:40:46;0.30;;;0.30;;
10293;SDS011;5192;50.328;7.610;2023-11-19T04:43:12;0.30;;;0.30;;
10293;SDS011;5192;50.328;7.610;2023-11-19T04:45:42;0.30;;;0.30;;
10293;SDS011;5192;50.328;7.610;2023-11-19T04:48:08;0.60;;;0.40;;
10293;SDS011;5192;50.328;7.610;2023-11-19T04:50:36;0.30;;;0.30;;
10293;SDS011;5192;50.328;7.610;2023-11-19T04:53:04;0.40;;;0.40;;
10293;SDS011;5192;50.328;7.610;2023-11-19T04:55:32;0.30;;;0.30;;
10293;SDS011;5192;50.328;7.610;2023-11-19T04:58:00;0.30;;;0.30;;
10293;SDS011;5192;50.328;7.610;2023-11-19T05:00:28;0.40;;;0.40;;
10293;SDS011;5192;50.328;7.610;2023-11-19T05:02:56;1.73;;;0.40;;
10293;SDS011;5192;50.328;7.610;2023-11-19T05:05:24;1.23;;;0.50;;
10293;SDS011;5192;50.328;7.610;2023-11-19T05:07:53;0.40;;;0.40;;
10293;SDS011;5192;50.328;7.610;2023-11-19T05:10:21;0.40;;;0.40;;
10293;SDS011;5192;50.328;7.610;2023-11-19T05:12:51;0.40;;;0.40;;
10293;SDS011;5192;50.328;7.610;2023-11-19T05:15:19;1.80;;;1.20;;
10293;SDS011;5192;50.328;7.610;2023-11-19T05:17:47;0.50;;;0.50;;
10293;SDS011;5192;50.328;7.610;2023-11-19T05:20:14;0.40;;;0.40;;
10293;SDS011;5192;50.328;7.610;2023-11-19T05:22:42;2.17;;;0.50;;
10293;SDS011;5192;50.328;7.610;2023-11-19T05:25:10;0.50;;;0.50;;
10293;SDS011;5192;50.328;7.610;2023-11-19T05:27:36;0.73;;;0.50;;
10293;SDS011;5192;50.328;7.610;2023-11-19T05:30:04;0.67;;;0.50;;
10293;SDS011;5192;50.328;7.610;2023-11-19T05:32:35;0.57;;;0.57;;
10293;SDS011;5192;50.328;7.610;2023-11-19T05:35:02;2.30;;;0.60;;
10293;SDS011;5192;50.328;7.610;2023-11-19T05:37:31;0.90;;;0.60;;
10293;SDS011;5192;50.328;7.610;2023-11-19T05:40:01;0.60;;;0.60;;
10293;SDS011;5192;50.328;7.610;2023-11-19T05:42:29;0.50;;;0.50;;
10293;SDS011;5192;50.328;7.610;2023-11-19T05:44:56;0.57;;;0.57;;
10293;SDS011;5192;50.328;7.610;2023-11-19T05:47:25;1.23;;;0.80;;
10293;SDS011;5192;50.328;7.610;2023-11-19T05:49:53;0.60;;;0.60;;
10293;SDS011;5192;50.328;7.610;2023-11-19T05:52:24;1.23;;;0.70;;
10293;SDS011;5192;50.328;7.610;2023-11-19T05:54:54;0.77;;;0.77;;
10293;SDS011;5192;50.328;7.610;2023-11-19T05:57:21;3.97;;;0.70;;
10293;SDS011;5192;50.328;7.610;2023-11-19T05:59:52;1.63;;;0.60;;
10293;SDS011;5192;50.328;7.610;2023-11-19T06:02:19;0.80;;;0.80;;
10293;SDS011;5192;50.328;7.610;2023-11-19T06:04:45;1.63;;;0.80;;
10293;SDS011;5192;50.328;7.610;2023-11-19T06:07:14;2.10;;;1.17;;
10293;SDS011;5192;50.328;7.610;2023-11-19T06:09:41;2.33;;;1.00;;
10293;SDS011;5192;50.328;7.610;2023-11-19T06:12:09;9.43;;;8.37;;
10293;SDS011;5192;50.328;7.610;2023-11-19T06:14:36;2.63;;;1.43;;
10293;SDS011;5192;50.328;7.610;2023-11-19T06:17:04;2.90;;;1.00;;
10293;SDS011;5192;50.328;7.610;2023-11-19T06:19:32;2.03;;;1.03;;
10293;SDS011;5192;50.328;7.610;2023-11-19T06:22:00;2.37;;;1.00;;
10293;SDS011;5192;50.328;7.610;2023-11-19T06:24:27;1.60;;;1.00;;
10293;SDS011;5192;50.328;7.610;2023-11-19T06:26:56;1.20;;;0.80;;
10293;SDS011;5192;50.328;7.610;2023-11-19T06:29:24;1.27;;;1.00;;
10293;SDS011;5192;50.328;7.610;2023-11-19T06:31:53;2.10;;;1.40;;
10293;SDS011;5192;50.328;7.610;2023-11-19T06:34:20;4.13;;;1.47;;
10293;SDS011;5192;50.328;7.610;2023-11-19T06:36:47;2.10;;;1.50;;
10293;SDS011;5192;50.328;7.610;2023-11-19T06:39:15;2.07;;;1.30;;
10293;SDS011;5192;50.328;7.610;2023-11-19T06:41:47;3.37;;;2.30;;
10293;SDS011;5192;50.328;7.610;2023-11-19T06:44:15;3.30;;;1.80;;
10293;SDS011;5192;50.328;7.610;2023-11-19T06:46:44;1.73;;;1.00;;
10293;SDS011;5192;50.328;7.610;2023-11-19T06:49:12;2.27;;;1.30;;
10293;SDS011;5192;50.328;7.610;2023-11-19T06:51:42;2.17;;;1.20;;
10293;SDS011;5192;50.328;7.610;2023-11-19T06:54:12;3.00;;;1.30;;
10293;SDS011;5192;50.328;7.610;2023-11-19T06:56:42;3.87;;;1.50;;
10293;SDS011;5192;50.328;7.610;2023-11-19T06:59:10;4.47;;;1.40;;
10293;SDS011;5192;50.328;7.610;2023-11-19T07:01:36;4.77;;;1.50;;
10293;SDS011;5192;50.328;7.610;2023-11-19T07:04:03;4.33;;;1.73;;
10293;SDS011;5192;50.328;7.610;2023-11-19T07:06:35;4.53;;;1.80;;
10293;SDS011;5192;50.328;7.610;2023-11-19T07:09:02;9.40;;;2.20;;
10293;SDS011;5192;50.328;7.610;2023-11-19T07:11:37;5.67;;;1.67;;
10293;SDS011;5192;50.328;7.610;2023-11-19T07:14:04;5.03;;;1.57;;
10293;SDS011;5192;50.328;7.610;2023-11-19T07:16:34;4.57;;;1.33;;
10293;SDS011;5192;50.328;7.610;2023-11-19T07:19:03;3.23;;;1.30;;
10293;SDS011;5192;50.328;7.610;2023-11-19T07:21:32;3.90;;;1.40;;
10293;SDS011;5192;50.328;7.610;2023-11-19T07:23:59;8.87;;;5.00;;
10293;SDS011;5192;50.328;7.610;2023-11-19T07:26:25;8.03;;;2.57;;
10293;SDS011;5192;50.328;7.610;2023-11-19T07:28:53;5.73;;;1.70;;
10293;SDS011;5192;50.328;7.610;2023-11-19T07:31:21;6.53;;;2.13;;
10293;SDS011;5192;50.328;7.610;2023-11-19T07:33:50;4.67;;;1.80;;
10293;SDS011;5192;50.328;7.610;2023-11-19T07:36:16;4.53;;;1.90;;
10293;SDS011;5192;50.328;7.610;2023-11-19T07:38:43;9.57;;;2.03;;
10293;SDS011;5192;50.328;7.610;2023-11-19T07:41:12;7.50;;;1.63;;
10293;SDS011;5192;50.328;7.610;2023-11-19T07:43:43;8.43;;;2.37;;
10293;SDS011;5192;50.328;7.610;2023-11-19T07:46:13;6.33;;;1.77;;
10293;SDS011;5192;50.328;7.610;2023-11-19T07:48:41;6.97;;;2.40;;
10293;SDS011;5192;50.328;7.610;2023-11-19T07:51:10;9.70;;;2.47;;
10293;SDS011;5192;50.328;7.610;2023-11-19T07:53:37;5.13;;;1.53;;
10293;SDS011;5192;50.328;7.610;2023-11-19T07:56:06;5.77;;;1.87;;
10293;SDS011;5192;50.328;7.610;2023-11-19T07:58:33;6.07;;;1.90;;
10293;SDS011;5192;50.328;7.610;2023-11-19T08:01:00;8.43;;;1.77;;
10293;SDS011;5192;50.328;7.610;2023-11-19T08:03:32;5.87;;;1.90;;
10293;SDS011;5192;50.328;7.610;2023-11-19T08:06:00;6.43;;;1.93;;
10293;SDS011;5192;50.328;7.610;2023-11-19T08:08:27;6.13;;;1.80;;
10293;SDS011;5192;50.328;7.610;2023-11-19T08:11:00;7.37;;;1.80;;
10293;SDS011;5192;50.328;7.610;2023-11-19T08:13:28;8.70;;;2.10;;
10293;SDS011;5192;50.328;7.610;2023-11-19T08:15:57;5.97;;;1.90;;
10293;SDS011;5192;50.328;7.610;2023-11-19T08:18:26;8.97;;;5.30;;
10293;SDS011;5192;50.328;7.610;2023-11-19T08:20:55;9.47;;;1.80;;
10293;SDS011;5192;50.328;7.610;2023-11-19T08:23:23;6.50;;;2.23;;
10293;SDS011;5192;50.328;7.610;2023-11-19T08:25:51;4.53;;;1.83;;
10293;SDS011;5192;50.328;7.610;2023-11-19T08:28:18;7.47;;;1.80;;
10293;SDS011;5192;50.328;7.610;2023-11-19T08:30:46;7.50;;;2.10;;
10293;SDS011;5192;50.328;7.610;2023-11-19T08:33:13;6.80;;;2.30;;
10293;SDS011;5192;50.328;7.610;2023-11-19T08:35:40;6.53;;;2.13;;
10293;SDS011;5192;50.328;7.610;2023-11-19T08:38:08;7.13;;;2.07;;
10293;SDS011;5192;50.328;7.610;2023-11-19T08:40:36;8.17;;;2.27;;
10293;SDS011;5192;50.328;7.610;2023-11-19T08:43:04;6.93;;;1.77;;
10293;SDS011;5192;50.328;7.610;2023-11-19T08:45:33;9.30;;;2.03;;
10293;SDS011;5192;50.328;7.610;2023-11-19T08:48:04;7.50;;;1.97;;
10293;SDS011;5192;50.328;7.610;2023-11-19T08:50:32;5.63;;;1.70;;
10293;SDS011;5192;50.328;7.610;2023-11-19T08:52:59;8.97;;;2.23;;
10293;SDS011;5192;50.328;7.610;2023-11-19T08:55:27;7.20;;;2.50;;
10293;SDS011;5192;50.328;7.610;2023-11-19T08:57:54;12.07;;;2.40;;
10293;SDS011;5192;50.328;7.610;2023-11-19T09:00:23;7.77;;;2.20;;
10293;SDS011;5192;50.328;7.610;2023-11-19T09:02:50;7.53;;;2.43;;
10293;SDS011;5192;50.328;7.610;2023-11-19T09:05:27;6.87;;;2.27;;
10293;SDS011;5192;50.328;7.610;2023-11-19T09:07:55;7.73;;;2.30;;
10293;SDS011;5192;50.328;7.610;2023-11-19T09:10:23;13.97;;;2.97;;
10293;SDS011;5192;50.328;7.610;2023-11-19T09:12:52;9.27;;;2.43;;
10293;SDS011;5192;50.328;7.610;2023-11-19T09:15:20;6.83;;;1.90;;
10293;SDS011;5192;50.328;7.610;2023-11-19T09:17:46;11.17;;;2.00;;
10293;SDS011;5192;50.328;7.610;2023-11-19T09:20:14;8.10;;;2.23;;
10293;SDS011;5192;50.328;7.610;2023-11-19T09:22:41;8.17;;;2.30;;
10293;SDS011;5192;50.328;7.610;2023-11-19T09:25:07;6.53;;;2.50;;
10293;SDS011;5192;50.328;7.610;2023-11-19T09:27:35;9.93;;;2.50;;
10293;SDS011;5192;50.328;7.610;2023-11-19T09:30:04;7.47;;;2.20;;
10293;SDS011;5192;50.328;7.610;2023-11-19T09:32:32;11.40;;;2.53;;
10293;SDS011;5192;50.328;7.610;2023-11-19T09:35:00;7.57;;;2.37;;
10293;SDS011;5192;50.328;7.610;2023-11-19T09:37:28;7.30;;;2.33;;
10293;SDS011;5192;50.328;7.610;2023-11-19T09:39:54;5.33;;;2.27;;
10293;SDS011;5192;50.328;7.610;2023-11-19T09:42:23;7.27;;;2.33;;
10293;SDS011;5192;50.328;7.610;2023-11-19T09:44:52;8.33;;;2.77;;
10293;SDS011;5192;50.328;7.610;2023-11-19T09:47:20;10.83;;;2.37;;
10293;SDS011;5192;50.328;7.610;2023-11-19T09:49:46;8.33;;;2.60;;
10293;SDS011;5192;50.328;7.610;2023-11-19T09:52:16;11.53;;;2.30;;
10293;SDS011;5192;50.328;7.610;2023-11-19T09:54:44;10.80;;;2.63;;
10293;SDS011;5192;50.328;7.610;2023-11-19T09:57:12;9.17;;;2.47;;
10293;SDS011;5192;50.328;7.610;2023-11-19T09:59:45;10.00;;;2.23;;
10293;SDS011;5192;50.328;7.610;2023-11-19T10:02:13;12.03;;;2.80;;
10293;SDS011;5192;50.328;7.610;2023-11-19T10:04:42;7.63;;;2.13;;
10293;SDS011;5192;50.328;7.610;2023-11-19T10:07:11;9.63;;;2.60;;
10293;SDS011;5192;50.328;7.610;2023-11-19T10:09:38;11.43;;;2.67;;
10293;SDS011;5192;50.328;7.610;2023-11-19T10:12:05;13.80;;;2.83;;
10293;SDS011;5192;50.328;7.610;2023-11-19T10:14:31;9.63;;;2.40;;
10293;SDS011;5192;50.328;7.610;2023-11-19T10:17:01;8.17;;;3.03;;
10293;SDS011;5192;50.328;7.610;2023-11-19T10:19:33;13.40;;;2.80;;
10293;SDS011;5192;50.328;7.610;2023-11-19T10:22:05;9.77;;;2.80;;
10293;SDS011;5192;50.328;7.610;2023-11-19T10:24:33;11.93;;;3.27;;
10293;SDS011;5192;50.328;7.610;2023-11-19T10:27:01;11.00;;;3.20;;
10293;SDS011;5192;50.328;7.610;2023-11-19T10:29:29;12.13;;;2.60;;
10293;SDS011;5192;50.328;7.610;2023-11-19T10:31:57;10.93;;;2.73;;
10293;SDS011;5192;50.328;7.610;2023-11-19T10:34:25;9.20;;;2.60;;
10293;SDS011;5192;50.328;7.610;2023-11-19T10:36:52;9.17;;;2.57;;
10293;SDS011;5192;50.328;7.610;2023-11-19T10:39:19;12.80;;;3.10;;
10293;SDS011;5192;50.328;7.610;2023-11-19T10:41:48;15.03;;;3.60;;
10293;SDS011;5192;50.328;7.610;2023-11-19T10:44:29;16.07;;;3.13;;
10293;SDS011;5192;50.328;7.610;2023-11-19T10:47:03;11.30;;;2.90;;
10293;SDS011;5192;50.328;7.610;2023-11-19T10:49:44;12.13;;;3.00;;
10293;SDS011;5192;50.328;7.610;2023-11-19T10:52:16;10.13;;;2.50;;
10293;SDS011;5192;50.328;7.610;2023-11-19T10:54:44;9.97;;;2.63;;
10293;SDS011;5192;50.328;7.610;2023-11-19T10:57:12;14.00;;;3.00;;
10293;SDS011;5192;50.328;7.610;2023-11-19T10:59:43;10.67;;;3.07;;
10293;SDS011;5192;50.328;7.610;2023-11-19T11:02:18;9.57;;;3.07;;
10293;SDS011;5192;50.328;7.610;2023-11-19T11:04:45;10.33;;;2.47;;
10293;SDS011;5192;50.328;7.610;2023-11-19T11:07:16;19.17;;;3.73;;
10293;SDS011;5192;50.328;7.610;2023-11-19T11:09:51;11.60;;;3.13;;
10293;SDS011;5192;50.328;7.610;2023-11-19T11:12:20;13.57;;;3.80;;
10293;SDS011;5192;50.328;7.610;2023-11-19T11:14:50;12.00;;;2.43;;
10293;SDS011;5192;50.328;7.610;2023-11-19T11:17:19;16.70;;;3.43;;
10293;SDS011;5192;50.328;7.610;2023-11-19T11:19:46;9.33;;;2.47;;
10293;SDS011;5192;50.328;7.610;2023-11-19T11:22:14;11.23;;;3.00;;
10293;SDS011;5192;50.328;7.610;2023-11-19T11:35:24;10.50;;;2.73;;
10293;SDS011;5192;50.328;7.610;2023-11-19T11:38:06;11.53;;;2.63;;
10293;SDS011;5192;50.328;7.610;2023-11-19T11:40:35;9.10;;;2.73;;
10293;SDS011;5192;50.328;7.610;2023-11-19T11:43:02;10.80;;;2.87;;
10293;SDS011;5192;50.328;7.610;2023-11-19T11:45:39;8.13;;;2.80;;
10293;SDS011;5192;50.328;7.610;2023-11-19T11:48:12;11.20;;;2.97;;
10293;SDS011;5192;50.328;7.610;2023-11-19T11:50:50;7.60;;;2.20;;
10293;SDS011;5192;50.328;7.610;2023-11-19T11:53:17;9.53;;;3.60;;
10293;SDS011;5192;50.328;7.610;2023-11-19T11:58:31;12.50;;;2.87;;
10293;SDS011;5192;50.328;7.610;2023-11-19T12:01:01;7.73;;;2.40;;
10293;SDS011;5192;50.328;7.610;2023-11-19T12:03:48;9.85;;;2.45;;
10293;SDS011;5192;50.328;7.610;2023-11-19T12:06:20;5.18;;;2.15;;
10293;SDS011;5192;50.328;7.610;2023-11-19T12:08:49;10.97;;;2.50;;
10293;SDS011;5192;50.328;7.610;2023-11-19T12:11:16;8.73;;;2.03;;
10293;SDS011;5192;50.328;7.610;2023-11-19T12:14:03;8.10;;;2.20;;
10293;SDS011;5192;50.328;7.610;2023-11-19T12:16:33;7.27;;;2.17;;
10293;SDS011;5192;50.328;7.610;2023-11-19T12:19:03;11.47;;;2.93;;
10293;SDS011;5192;50.328;7.610;2023-11-19T12:21:33;8.13;;;2.03;;
10293;SDS011;5192;50.328;7.610;2023-11-19T12:24:05;9.27;;;2.60;;
10293;SDS011;5192;50.328;7.610;2023-11-19T12:26:35;5.93;;;2.07;;
10293;SDS011;5192;50.328;7.610;2023-11-19T12:29:06;5.23;;;2.03;;
10293;SDS011;5192;50.328;7.610;2023-11-19T12:31:34;6.07;;;2.23;;
10293;SDS011;5192;50.328;7.610;2023-11-19T12:34:05;9.07;;;2.60;;
10293;SDS011;5192;50.328;7.610;2023-11-19T12:36:37;6.87;;;1.87;;
10293;SDS011;5192;50.328;7.610;2023-11-19T12:39:04;9.23;;;2.60;;
10293;SDS011;5192;50.328;7.610;2023-11-19T12:41:32;7.70;;;2.43;;
10293;SDS011;5192;50.328;7.610;2023-11-19T12:44:14;8.97;;;2.37;;
10293;SDS011;5192;50.328;7.610;2023-11-19T12:46:42;9.50;;;2.30;;
10293;SDS011;5192;50.328;7.610;2023-11-19T12:49:08;6.27;;;2.33;;
10293;SDS011;5192;50.328;7.610;2023-11-19T12:51:40;6.50;;;1.90;;
10293;SDS011;5192;50.328;7.610;2023-11-19T12:54:08;7.10;;;2.10;;
10293;SDS011;5192;50.328;7.610;2023-11-19T12:56:37;8.90;;;2.17;;
10293;SDS011;5192;50.328;7.610;2023-11-19T12:59:13;10.23;;;2.77;;
10293;SDS011;5192;50.328;7.610;2023-11-19T13:01:53;6.33;;;1.87;;
10293;SDS011;5192;50.328;7.610;2023-11-19T13:04:21;7.40;;;2.30;;
10293;SDS011;5192;50.328;7.610;2023-11-19T13:06:50;10.53;;;2.77;;
10293;SDS011;5192;50.328;7.610;2023-11-19T13:09:25;8.63;;;2.40;;
10293;SDS011;5192;50.328;7.610;2023-11-19T13:11:53;7.10;;;1.90;;
10293;SDS011;5192;50.328;7.610;2023-11-19T13:14:21;8.37;;;2.40;;
10293;SDS011;5192;50.328;7.610;2023-11-19T13:16:49;8.63;;;2.20;;
10293;SDS011;5192;50.328;7.610;2023-11-19T13:19:18;8.00;;;2.47;;
10293;SDS011;5192;50.328;7.610;2023-11-19T13:21:45;6.83;;;2.00;;
10293;SDS011;5192;50.328;7.610;2023-11-19T13:24:13;9.80;;;2.33;;
10293;SDS011;5192;50.328;7.610;2023-11-19T13:26:40;10.17;;;2.60;;
10293;SDS011;5192;50.328;7.610;2023-11-19T13:29:09;8.73;;;2.13;;
10293;SDS011;5192;50.328;7.610;2023-11-19T13:31:36;10.37;;;2.57;;
10293;SDS011;5192;50.328;7.610;2023-11-19T13:34:05;6.17;;;2.00;;
10293;SDS011;5192;50.328;7.610;2023-11-19T13:36:33;7.97;;;2.10;;
10293;SDS011;5192;50.328;7.610;2023-11-19T13:39:01;7.50;;;2.17;;
10293;SDS011;5192;50.328;7.610;2023-11-19T13:41:30;5.40;;;2.00;;
10293;SDS011;5192;50.328;7.610;2023-11-19T13:43:57;6.40;;;2.00;;
10293;SDS011;5192;50.328;7.610;2023-11-19T13:46:26;7.03;;;1.80;;
10293;SDS011;5192;50.328;7.610;2023-11-19T13:48:52;7.53;;;2.10;;
10293;SDS011;5192;50.328;7.610;2023-11-19T13:51:21;7.43;;;2.00;;
10293;SDS011;5192;50.328;7.610;2023-11-19T13:53:47;15.63;;;3.97;;
10293;SDS011;5192;50.328;7.610;2023-11-19T13:56:15;6.53;;;2.10;;
10293;SDS011;5192;50.328;7.610;2023-11-19T13:58:45;7.93;;;2.10;;
10293;SDS011;5192;50.328;7.610;2023-11-19T14:01:13;7.37;;;1.70;;
10293;SDS011;5192;50.328;7.610;2023-11-19T14:03:40;5.23;;;2.10;;
10293;SDS011;5192;50.328;7.610;2023-11-19T14:06:08;9.87;;;2.17;;
10293;SDS011;5192;50.328;7.610;2023-11-19T14:08:39;9.03;;;2.57;;
10293;SDS011;5192;50.328;7.610;2023-11-19T14:11:07;10.07;;;2.13;;
10293;SDS011;5192;50.328;7.610;2023-11-19T14:13:35;10.27;;;4.10;;
10293;SDS011;5192;50.328;7.610;2023-11-19T14:16:03;9.60;;;2.60;;
10293;SDS011;5192;50.328;7.610;2023-11-19T14:18:33;9.07;;;2.30;;
10293;SDS011;5192;50.328;7.610;2023-11-19T14:21:01;7.77;;;2.30;;
10293;SDS011;5192;50.328;7.610;2023-11-19T14:23:29;5.10;;;2.00;;
10293;SDS011;5192;50.328;7.610;2023-11-19T14:25:58;7.60;;;2.10;;
10293;SDS011;5192;50.328;7.610;2023-11-19T14:28:24;7.20;;;2.20;;
10293;SDS011;5192;50.328;7.610;2023-11-19T14:30:53;9.03;;;2.33;;
10293;SDS011;5192;50.328;7.610;2023-11-19T14:33:21;8.17;;;2.30;;
10293;SDS011;5192;50.328;7.610;2023-11-19T14:35:50;8.33;;;2.17;;
10293;SDS011;5192;50.328;7.610;2023-11-19T14:38:17;7.67;;;2.10;;
10293;SDS011;5192;50.328;7.610;2023-11-19T14:40:55;7.57;;;2.30;;
10293;SDS011;5192;50.328;7.610;2023-11-19T14:43:21;8.43;;;2.53;;
10293;SDS011;5192;50.328;7.610;2023-11-19T14:45:51;7.60;;;2.30;;
10293;SDS011;5192;50.328;7.610;2023-11-19T14:48:18;6.87;;;2.00;;
10293;SDS011;5192;50.328;7.610;2023-11-19T14:50:47;7.90;;;2.30;;
10293;SDS011;5192;50.328;7.610;2023-11-19T14:53:13;9.43;;;2.00;;
10293;SDS011;5192;50.328;7.610;2023-11-19T14:55:42;8.77;;;2.60;;
10293;SDS011;5192;50.328;7.610;2023-11-19T14:58:09;8.60;;;2.63;;
10293;SDS011;5192;50.328;7.610;2023-11-19T15:00:35;10.40;;;2.40;;
10293;SDS011;5192;50.328;7.610;2023-11-19T15:03:02;8.23;;;2.17;;
10293;SDS011;5192;50.328;7.610;2023-11-19T15:05:28;8.63;;;2.70;;
10293;SDS011;5192;50.328;7.610;2023-11-19T15:07:57;7.30;;;2.87;;
10293;SDS011;5192;50.328;7.610;2023-11-19T15:10:23;8.17;;;2.80;;
10293;SDS011;5192;50.328;7.610;2023-11-19T15:12:52;9.83;;;2.60;;
10293;SDS011;5192;50.328;7.610;2023-11-19T15:15:19;7.57;;;2.00;;
10293;SDS011;5192;50.328;7.610;2023-11-19T15:17:48;9.67;;;2.43;;
10293;SDS011;5192;50.328;7.610;2023-11-19T15:20:16;7.03;;;2.20;;
10293;SDS011;5192;50.328;7.610;2023-11-19T15:22:44;10.03;;;2.43;;